DucheSS Of Scandinavia — OUZI2 — position and weather

sailwx.info

Track history (hours):
 
Tides and Currents Weather Stations Pressure Air Temp Water Temp Dewpoint Dewpoint Depression Visibility Wind Speed Wind Dir Waves Ship Positions

DucheSS Of Scandinavia

Operator: DFDS A/S

Last reported at 2015-Jan-29 16:33 UTC. Time now 2015-Jan-29 18:22 UTC.
Position N 59°01' E 010°29'.

Length 134 m; draft 5.2 m.

Type: Passenger vessel. MMSI: 219002929.

Date/timePositionNaut miles runAvg speedWind from/ knotsBaromVisibWave heightAir tempDewpointWater temp
2015-Jan-29 16:33N 59°01' E 010°29'1413.7
2015-Jan-29 15:33N 59°01' E 010°55'6 4.5
2015-Jan-29 14:08N 58°56' E 011°05'915.9
2015-Jan-29 13:33N 59°01' E 010°49'11 3.6
2015-Jan-29 10:22N 59°00' E 010°27'1113.7
2015-Jan-29 09:33N 59°02' E 010°49'1 0.3
2015-Jan-29 07:15N 59°02' E 010°47'9 0.6
2015-Jan-28 16:31N 58°60' E 010°30'1414.1
2015-Jan-28 15:33N 59°00' E 010°56'6 4.6
2015-Jan-28 14:11N 58°56' E 011°05'1016.4
2015-Jan-28 13:33N 59°02' E 010°48'9 2.8
2015-Jan-28 10:12N 59°00' E 010°30'914.7
2015-Jan-28 09:33N 59°02' E 010°48'2 0.9
2015-Jan-28 07:25N 59°01' E 010°52'12 0.8
2015-Jan-27 16:29N 59°01' E 010°28'1414.8
2015-Jan-27 15:33N 59°01' E 010°54'9 9.4
2015-Jan-27 14:33N 58°56' E 011°10'1212.3
2015-Jan-27 13:33N 59°01' E 010°49'11 3.3
2015-Jan-27 10:15N 59°01' E 010°28'1115.7
2015-Jan-27 09:33N 59°02' E 010°49'1210.3
2015-Jan-27 08:21N 58°56' E 011°10'1011.4
2015-Jan-27 07:29N 59°01' E 010°53'13 0.9
2015-Jan-26 16:24N 59°01' E 010°28'1416.0
2015-Jan-26 15:34N 59°01' E 010°54'7 5.0
2015-Jan-26 14:10N 58°56' E 011°05'1015.9
2015-Jan-26 13:33N 59°01' E 010°49'10 0.5
2015-Jan-25 16:31N 59°01' E 010°30'1515.2
2015-Jan-25 15:34N 58°60' E 010°59'7 6.9
2015-Jan-25 14:33N 58°56' E 011°10'1212.1
2015-Jan-25 13:33N 59°01' E 010°49'11 3.3
2015-Jan-25 10:13N 59°01' E 010°28'1015.2
2015-Jan-25 09:33N 59°02' E 010°47'1310.8
2015-Jan-25 08:20N 58°56' E 011°10'8 9.9
2015-Jan-25 07:34N 58°60' E 010°57'1616.3
2015-Jan-25 06:33N 59°01' E 010°26'2 0.2
2015-Jan-24 16:22N 59°00' E 010°31'1214.9
2015-Jan-24 15:33N 59°01' E 010°54'7 5.3
2015-Jan-24 14:11N 58°56' E 011°05'1115.7
2015-Jan-24 13:29N 59°02' E 010°47'12 3.9
2015-Jan-24 10:30N 58°60' E 010°25'1112.3
2015-Jan-24 09:34N 59°02' E 010°47'4 2.1
2015-Jan-24 07:33N 59°01' E 010°55'15 1.0
2015-Jan-23 16:31N 59°01' E 010°26'1515.2
2015-Jan-23 15:34N 59°01' E 010°54'7 5.1
2015-Jan-23 14:10N 58°56' E 011°05'1116.0
2015-Jan-23 13:30N 59°02' E 010°47'10 3.1
2015-Jan-23 10:14N 59°01' E 010°28'1015.0
2015-Jan-23 09:33N 59°02' E 010°48'5 2.7
2015-Jan-23 07:33N 58°60' E 010°58'14 0.9
2015-Jan-22 16:20N 59°00' E 010°30'1316.6
2015-Jan-22 15:33N 59°00' E 010°55'8 6.7
2015-Jan-22 14:18N 58°56' E 011°09'1216.0
2015-Jan-22 13:33N 59°01' E 010°49'11 3.2
2015-Jan-22 10:13N 59°01' E 010°28'1116.4
2015-Jan-22 09:34N 59°02' E 010°49'12 8.4
2015-Jan-22 08:08N 58°56' E 011°09'1015.9
2015-Jan-22 07:29N 59°01' E 010°52'12 0.8
2015-Jan-21 16:33N 59°01' E 010°28'1616.2
2015-Jan-21 15:33N 58°60' E 010°59'7 5.4
2015-Jan-21 14:21N 58°56' E 011°09'1315.7
2015-Jan-21 13:33N 59°02' E 010°47'10 3.2
2015-Jan-21 10:17N 59°01' E 010°27'1216.5
2015-Jan-21 09:34N 59°01' E 010°51'11 8.1
2015-Jan-21 08:13N 58°56' E 011°09'1115.5
2015-Jan-21 07:29N 59°01' E 010°50'11 0.7
2015-Jan-20 16:29N 59°01' E 010°28'1415.4
2015-Jan-20 15:34N 59°00' E 010°56'8 6.9
2015-Jan-20 14:23N 58°56' E 011°09'1315.7
2015-Jan-20 13:33N 59°02' E 010°47'10 2.9
2015-Jan-20 10:15N 59°01' E 010°28'1115.3
2015-Jan-20 09:33N 59°01' E 010°49'2 0.9
2015-Jan-20 07:30N 59°01' E 010°52'  
Track history (hours):
 
Tides and Currents Weather Stations Pressure Air Temp Water Temp Dewpoint Dewpoint Depression Visibility Wind Speed Wind Dir Waves Ship Positions

DucheSS Of Scandinavia

Operator: DFDS A/S

Last reported at 2015-Jan-29 16:33 UTC. Time now 2015-Jan-29 18:22 UTC.
Position N 59°01' E 010°29'.

Length 134 m; draft 5.2 m.

Type: Passenger vessel. MMSI: 219002929.

Date/timePositionNaut miles runAvg speedWind from/ knotsBaromVisibWave heightAir tempDewpointWater temp
2015-Jan-29 16:33N 59°01' E 010°29'1413.7
2015-Jan-29 15:33N 59°01' E 010°55'6 4.5
2015-Jan-29 14:08N 58°56' E 011°05'915.9
2015-Jan-29 13:33N 59°01' E 010°49'11 3.6
2015-Jan-29 10:22N 59°00' E 010°27'1113.7
2015-Jan-29 09:33N 59°02' E 010°49'1 0.3
2015-Jan-29 07:15N 59°02' E 010°47'9 0.6
2015-Jan-28 16:31N 58°60' E 010°30'1414.1
2015-Jan-28 15:33N 59°00' E 010°56'6 4.6
2015-Jan-28 14:11N 58°56' E 011°05'1016.4
2015-Jan-28 13:33N 59°02' E 010°48'9 2.8
2015-Jan-28 10:12N 59°00' E 010°30'914.7
2015-Jan-28 09:33N 59°02' E 010°48'2 0.9
2015-Jan-28 07:25N 59°01' E 010°52'12 0.8
2015-Jan-27 16:29N 59°01' E 010°28'1414.8
2015-Jan-27 15:33N 59°01' E 010°54'9 9.4
2015-Jan-27 14:33N 58°56' E 011°10'1212.3
2015-Jan-27 13:33N 59°01' E 010°49'11 3.3
2015-Jan-27 10:15N 59°01' E 010°28'1115.7
2015-Jan-27 09:33N 59°02' E 010°49'1210.3
2015-Jan-27 08:21N 58°56' E 011°10'1011.4
2015-Jan-27 07:29N 59°01' E 010°53'13 0.9
2015-Jan-26 16:24N 59°01' E 010°28'1416.0
2015-Jan-26 15:34N 59°01' E 010°54'7 5.0
2015-Jan-26 14:10N 58°56' E 011°05'1015.9
2015-Jan-26 13:33N 59°01' E 010°49'10 0.5
2015-Jan-25 16:31N 59°01' E 010°30'1515.2
2015-Jan-25 15:34N 58°60' E 010°59'7 6.9
2015-Jan-25 14:33N 58°56' E 011°10'1212.1
2015-Jan-25 13:33N 59°01' E 010°49'11 3.3
2015-Jan-25 10:13N 59°01' E 010°28'1015.2
2015-Jan-25 09:33N 59°02' E 010°47'1310.8
2015-Jan-25 08:20N 58°56' E 011°10'8 9.9
2015-Jan-25 07:34N 58°60' E 010°57'1616.3
2015-Jan-25 06:33N 59°01' E 010°26'2 0.2
2015-Jan-24 16:22N 59°00' E 010°31'1214.9
2015-Jan-24 15:33N 59°01' E 010°54'7 5.3
2015-Jan-24 14:11N 58°56' E 011°05'1115.7
2015-Jan-24 13:29N 59°02' E 010°47'12 3.9
2015-Jan-24 10:30N 58°60' E 010°25'1112.3
2015-Jan-24 09:34N 59°02' E 010°47'4 2.1
2015-Jan-24 07:33N 59°01' E 010°55'15 1.0
2015-Jan-23 16:31N 59°01' E 010°26'1515.2
2015-Jan-23 15:34N 59°01' E 010°54'7 5.1
2015-Jan-23 14:10N 58°56' E 011°05'1116.0
2015-Jan-23 13:30N 59°02' E 010°47'10 3.1
2015-Jan-23 10:14N 59°01' E 010°28'1015.0
2015-Jan-23 09:33N 59°02' E 010°48'5 2.7
2015-Jan-23 07:33N 58°60' E 010°58'14 0.9
2015-Jan-22 16:20N 59°00' E 010°30'1316.6
2015-Jan-22 15:33N 59°00' E 010°55'8 6.7
2015-Jan-22 14:18N 58°56' E 011°09'1216.0
2015-Jan-22 13:33N 59°01' E 010°49'11 3.2
2015-Jan-22 10:13N 59°01' E 010°28'1116.4
2015-Jan-22 09:34N 59°02' E 010°49'12 8.4
2015-Jan-22 08:08N 58°56' E 011°09'1015.9
2015-Jan-22 07:29N 59°01' E 010°52'12 0.8
2015-Jan-21 16:33N 59°01' E 010°28'1616.2
2015-Jan-21 15:33N 58°60' E 010°59'7 5.4
2015-Jan-21 14:21N 58°56' E 011°09'1315.7
2015-Jan-21 13:33N 59°02' E 010°47'10 3.2
2015-Jan-21 10:17N 59°01' E 010°27'1216.5
2015-Jan-21 09:34N 59°01' E 010°51'11 8.1
2015-Jan-21 08:13N 58°56' E 011°09'1115.5
2015-Jan-21 07:29N 59°01' E 010°50'11 0.7
2015-Jan-20 16:29N 59°01' E 010°28'1415.4
2015-Jan-20 15:34N 59°00' E 010°56'8 6.9
2015-Jan-20 14:23N 58°56' E 011°09'1315.7
2015-Jan-20 13:33N 59°02' E 010°47'10 2.9
2015-Jan-20 10:15N 59°01' E 010°28'1115.3
2015-Jan-20 09:33N 59°01' E 010°49'2 0.9
2015-Jan-20 07:30N 59°01' E 010°52'  

Dump ship's entire track history